Time;durP1;ratioP1;P1;durP2;ratioP2;P2;SDS_P1;SDS_P2;PMS_P1;PMS_P2;Temp;Humidity;BMP_temperature;BMP_pressure;BME280_temperature;BME280_humidity;BME280_pressure;Samples;Min_cycle;Max_cycle;Signal;HPM_P1;HPM_P2
2022/08/23 00:03:51;;;;;;;4.45;2.60;;;;;;;;;;10362068;28;20044;-73
2022/08/23 00:08:54;;;;;;;5.63;2.72;;;;;;;;;;10360084;28;20062;-73
2022/08/23 00:13:59;;;;;;;4.43;2.45;;;;;;;;;;10360994;28;20065;-73
2022/08/23 00:19:02;;;;;;;7.97;2.50;;;;;;;;;;10356006;28;20055;-73
2022/08/23 00:24:06;;;;;;;4.33;2.77;;;;;;;;;;10360035;28;20130;-74
2022/08/23 00:29:19;;;;;;;5.35;2.90;;;;;;;;;;10360310;28;20328;-74
2022/08/23 00:34:22;;;;;;;7.15;3.45;;;;;;;;;;10362244;28;20136;-73
2022/08/23 00:39:25;;;;;;;6.93;3.03;;;;;;;;;;10357276;28;20111;-73
2022/08/23 00:49:54;;;;;;;5.40;3.10;;;;;;;;;;10359810;28;20050;-73
2022/08/23 00:54:57;;;;;;;5.43;2.97;;;;;;;;;;10365243;28;20137;-74
2022/08/23 01:00:02;;;;;;;5.13;2.85;;;;;;;;;;10364945;28;20581;-73
2022/08/23 01:05:07;;;;;;;7.88;3.78;;;;;;;;;;10359381;28;20112;-74
2022/08/23 01:10:13;;;;;;;7.20;3.40;;;;;;;;;;10365321;28;20089;-74
2022/08/23 01:15:26;;;;;;;8.63;3.55;;;;;;;;;;10365936;28;20077;-74
2022/08/23 01:20:32;;;;;;;5.28;3.35;;;;;;;;;;10355844;28;20493;-74
2022/08/23 01:25:37;;;;;;;7.60;3.08;;;;;;;;;;10357022;28;20047;-73
2022/08/23 01:30:41;;;;;;;5.70;3.53;;;;;;;;;;10354135;28;20046;-73
2022/08/23 01:35:56;;;;;;;6.07;3.60;;;;;;;;;;10358664;28;20152;-74
2022/08/23 01:41:01;;;;;;;8.25;3.95;;;;;;;;;;10357982;28;20042;-73
2022/08/23 01:46:13;;;;;;;;;;;;;;;;;;10360306;28;20237;-74
2022/08/23 01:51:18;;;;;;;6.25;3.80;;;;;;;;;;10359392;28;19950;-74
2022/08/23 01:56:23;;;;;;;7.18;3.95;;;;;;;;;;10360647;28;20038;-73
2022/08/23 02:01:40;;;;;;;7.38;3.55;;;;;;;;;;10361656;28;20176;-74
2022/08/23 02:06:43;;;;;;;6.10;3.87;;;;;;;;;;10361235;28;20034;-74
2022/08/23 02:11:48;;;;;;;8.25;4.07;;;;;;;;;;10361984;28;20065;-73
2022/08/23 02:16:52;;;;;;;8.52;4.97;;;;;;;;;;10354042;28;20062;-74
2022/08/23 02:22:06;;;;;;;7.38;4.53;;;;;;;;;;10351712;28;20042;-73
2022/08/23 02:27:08;;;;;;;;;;;;;;;;;;10352687;28;20042;-74
2022/08/23 02:32:14;;;;;;;6.40;3.90;;;;;;;;;;10359031;28;19926;-73
2022/08/23 02:37:17;;;;;;;10.77;4.82;;;;;;;;;;10355805;28;20121;-73
2022/08/23 02:42:20;;;;;;;6.40;4.07;;;;;;;;;;10353810;28;20162;-73
2022/08/23 02:47:24;;;;;;;9.65;4.28;;;;;;;;;;10358771;28;20152;-74
2022/08/23 02:52:27;;;;;;;7.25;4.18;;;;;;;;;;10357075;28;20190;-73
2022/08/23 02:57:30;;;;;;;7.88;4.53;;;;;;;;;;10354752;28;20042;-73
2022/08/23 03:02:35;;;;;;;8.43;4.20;;;;;;;;;;10349998;28;20050;-74
2022/08/23 03:07:38;;;;;;;12.68;4.68;;;;;;;;;;10354523;28;20054;-74
2022/08/23 03:12:41;;;;;;;7.47;4.57;;;;;;;;;;10355391;28;20044;-73
2022/08/23 03:17:46;;;;;;;9.05;4.60;;;;;;;;;;10333778;28;20406;-74
2022/08/23 03:22:49;;;;;;;8.45;4.45;;;;;;;;;;10354030;28;20049;-73
2022/08/23 03:27:57;;;;;;;7.88;4.63;;;;;;;;;;10356601;28;20478;-74
2022/08/23 03:33:04;;;;;;;6.73;4.27;;;;;;;;;;10357806;28;20589;-74
2022/08/23 03:38:07;;;;;;;7.72;4.70;;;;;;;;;;10353229;28;20760;-75
2022/08/23 03:43:10;;;;;;;9.43;5.90;;;;;;;;;;10360219;28;20111;-74
2022/08/23 03:48:15;;;;;;;8.35;4.63;;;;;;;;;;10358014;28;20125;-74
2022/08/23 03:53:18;;;;;;;7.15;4.30;;;;;;;;;;10358441;28;20038;-74
2022/08/23 03:58:24;;;;;;;8.77;4.55;;;;;;;;;;10363811;28;20061;-74
2022/08/23 04:03:28;;;;;;;9.27;4.35;;;;;;;;;;10357847;28;20048;-73
2022/08/23 04:08:30;;;;;;;;;;;;;;;;;;10359913;28;20048;-74
2022/08/23 04:13:35;;;;;;;;;;;;;;;;;;10359887;28;19933;-73
2022/08/23 04:18:39;;;;;;;8.15;4.28;;;;;;;;;;10360570;28;19948;-72
2022/08/23 04:23:42;;;;;;;9.80;4.45;;;;;;;;;;10355605;28;20121;-73
2022/08/23 04:28:45;;;;;;;6.53;4.00;;;;;;;;;;10354763;28;20133;-73
2022/08/23 04:33:49;;;;;;;10.45;4.78;;;;;;;;;;10354515;28;20176;-74
2022/08/23 04:38:54;;;;;;;6.82;4.07;;;;;;;;;;10351695;28;20510;-73
2022/08/23 04:43:57;;;;;;;8.55;4.53;;;;;;;;;;10359692;28;20073;-74
2022/08/23 04:49:01;;;;;;;8.90;3.80;;;;;;;;;;10359179;28;20046;-73
2022/08/23 04:54:04;;;;;;;10.00;4.68;;;;;;;;;;10354241;28;20046;-74
2022/08/23 04:59:07;;;;;;;6.93;3.97;;;;;;;;;;10353390;28;20062;-74
2022/08/23 05:04:16;;;;;;;11.05;4.85;;;;;;;;;;10343282;28;20046;-74
2022/08/23 05:09:19;;;;;;;9.10;4.43;;;;;;;;;;10356020;28;20128;-73
2022/08/23 05:14:23;;;;;;;9.50;4.57;;;;;;;;;;10354344;28;20044;-73
2022/08/23 05:19:27;;;;;;;10.82;4.82;;;;;;;;;;10359604;28;20124;-74
2022/08/23 05:24:30;;;;;;;7.20;4.15;;;;;;;;;;10351649;28;20064;-74
2022/08/23 05:29:33;;;;;;;7.00;4.32;;;;;;;;;;10350560;28;20074;-74
2022/08/23 05:34:37;;;;;;;8.82;4.70;;;;;;;;;;10350420;28;20522;-73
2022/08/23 05:39:40;;;;;;;11.23;4.78;;;;;;;;;;10342592;28;20038;-74
2022/08/23 05:44:44;;;;;;;8.37;4.17;;;;;;;;;;10337111;28;20104;-74
2022/08/23 05:49:49;;;;;;;7.38;4.63;;;;;;;;;;10338712;28;20042;-73
2022/08/23 05:54:51;;;;;;;10.75;5.15;;;;;;;;;;10360928;28;20126;-74
2022/08/23 05:59:54;;;;;;;8.53;4.83;;;;;;;;;;10364759;28;20045;-74
2022/08/23 06:04:58;;;;;;;9.90;4.88;;;;;;;;;;10363683;28;20069;-73
2022/08/23 06:10:01;;;;;;;9.70;4.18;;;;;;;;;;10363487;28;20038;-73
2022/08/23 06:15:05;;;;;;;11.70;4.47;;;;;;;;;;10361638;28;20096;-75
2022/08/23 06:20:09;;;;;;;;;;;;;;;;;;10364337;28;20030;-72
2022/08/23 06:25:17;;;;;;;10.43;4.30;;;;;;;;;;10363989;28;19925;-76
2022/08/23 06:30:20;;;;;;;9.25;4.90;;;;;;;;;;10371397;28;20133;-75
2022/08/23 06:35:23;;;;;;;8.18;4.43;;;;;;;;;;10363195;28;20096;-73
2022/08/23 06:40:43;;;;;;;5.20;2.30;;;;;;;;;;10360555;28;20443;-73
2022/08/23 06:45:46;;;;;;;9.45;5.20;;;;;;;;;;10363918;28;20040;-74
2022/08/23 06:50:57;;;;;;;8.40;4.70;;;;;;;;;;10361154;28;20045;-74
2022/08/23 06:56:01;;;;;;;7.32;3.58;;;;;;;;;;10350010;28;20049;-74
2022/08/23 07:01:10;;;;;;;13.02;3.72;;;;;;;;;;10361529;28;20121;-74
2022/08/23 07:06:34;;;;;;;9.48;4.32;;;;;;;;;;10359122;28;20070;-74
2022/08/23 07:11:40;;;;;;;4.07;3.15;;;;;;;;;;10362514;28;20129;-73
2022/08/23 07:16:44;;;;;;;6.80;3.53;;;;;;;;;;10369841;28;20065;-73
2022/08/23 07:21:48;;;;;;;4.97;3.20;;;;;;;;;;10361285;28;20042;-73
2022/08/23 07:26:52;;;;;;;5.53;3.40;;;;;;;;;;10365808;28;20046;-74
2022/08/23 07:31:56;;;;;;;5.72;3.60;;;;;;;;;;10362187;28;20113;-74
2022/08/23 07:36:59;;;;;;;6.32;3.20;;;;;;;;;;10341026;28;20038;-74
2022/08/23 07:42:03;;;;;;;6.72;3.33;;;;;;;;;;10356109;28;20065;-74
2022/08/23 07:47:27;;;;;;;5.07;3.30;;;;;;;;;;10361348;28;20415;-74
2022/08/23 07:52:30;;;;;;;11.02;6.43;;;;;;;;;;10363425;28;20355;-74
2022/08/23 07:57:34;;;;;;;7.03;4.05;;;;;;;;;;10361847;28;20479;-74
2022/08/23 08:02:37;;;;;;;5.10;3.50;;;;;;;;;;10360671;28;20057;-75
2022/08/23 08:07:40;;;;;;;7.63;4.03;;;;;;;;;;10354589;28;20042;-74
2022/08/23 08:12:44;;;;;;;5.93;3.33;;;;;;;;;;10356217;28;20121;-74
2022/08/23 08:17:47;;;;;;;3.22;2.90;;;;;;;;;;10358644;28;20060;-75
2022/08/23 08:22:50;;;;;;;4.85;2.97;;;;;;;;;;10358882;28;20367;-75
2022/08/23 08:28:03;;;;;;;4.80;2.88;;;;;;;;;;10359495;28;20442;-75
2022/08/23 08:33:06;;;;;;;4.80;3.22;;;;;;;;;;10362101;28;20121;-74
2022/08/23 08:38:09;;;;;;;4.82;3.30;;;;;;;;;;10356413;28;20243;-74
2022/08/23 08:43:21;;;;;;;4.25;3.17;;;;;;;;;;10360468;28;20128;-75
2022/08/23 08:48:25;;;;;;;6.00;3.20;;;;;;;;;;10355065;28;20487;-74
2022/08/23 08:53:29;;;;;;;8.35;3.50;;;;;;;;;;10338175;28;20045;-74
2022/08/23 08:58:44;;;;;;;9.68;3.15;;;;;;;;;;10339260;28;20056;-74
2022/08/23 09:03:47;;;;;;;5.65;3.90;;;;;;;;;;10352602;28;20125;-73
2022/08/23 09:09:03;;;;;;;4.63;3.63;;;;;;;;;;10357453;28;20464;-74
2022/08/23 09:14:12;;;;;;;5.38;3.30;;;;;;;;;;10362181;28;20595;-74
2022/08/23 09:19:16;;;;;;;5.50;3.78;;;;;;;;;;10361573;28;20096;-74
2022/08/23 09:24:19;;;;;;;5.15;4.28;;;;;;;;;;10360714;28;20077;-74
2022/08/23 09:29:24;;;;;;;5.65;3.45;;;;;;;;;;10369105;28;20038;-75
2022/08/23 09:34:38;;;;;;;4.45;3.45;;;;;;;;;;10366864;28;20141;-75
2022/08/23 09:39:43;;;;;;;4.18;3.40;;;;;;;;;;10364151;28;20074;-74
2022/08/23 09:44:47;;;;;;;4.00;2.95;;;;;;;;;;10366490;28;20048;-74
2022/08/23 09:49:51;;;;;;;5.15;3.28;;;;;;;;;;10372889;28;20510;-74
2022/08/23 09:54:54;;;;;;;3.20;2.90;;;;;;;;;;10363249;28;20073;-74
2022/08/23 10:00:02;;;;;;;5.38;2.80;;;;;;;;;;10366741;28;20065;-74
2022/08/23 10:05:10;;;;;;;3.88;2.80;;;;;;;;;;10368135;28;20041;-73
2022/08/23 10:10:18;;;;;;;5.88;3.58;;;;;;;;;;10363407;28;20040;-74
2022/08/23 10:15:25;;;;;;;5.05;3.50;;;;;;;;;;10366158;28;20138;-73
2022/08/23 10:20:34;;;;;;;7.70;3.50;;;;;;;;;;10362883;28;20537;-75
2022/08/23 10:25:39;;;;;;;4.25;2.80;;;;;;;;;;10360982;28;20100;-74
2022/08/23 10:30:48;;;;;;;5.15;3.35;;;;;;;;;;10363322;28;20084;-74
2022/08/23 10:35:56;;;;;;;3.53;3.00;;;;;;;;;;10363039;28;20046;-74
2022/08/23 10:41:01;;;;;;;3.40;3.03;;;;;;;;;;10358377;28;20030;-75
2022/08/23 10:46:07;;;;;;;3.22;3.03;;;;;;;;;;10359295;28;20530;-74
2022/08/23 10:51:12;;;;;;;3.25;2.67;;;;;;;;;;10358759;28;20046;-74
2022/08/23 10:56:18;;;;;;;5.85;2.97;;;;;;;;;;10364725;28;20121;-73
2022/08/23 11:01:23;;;;;;;6.35;4.53;;;;;;;;;;10365390;28;20030;-74
2022/08/23 11:06:41;;;;;;;3.67;2.95;;;;;;;;;;10361339;28;20130;-74
2022/08/23 11:11:47;;;;;;;3.38;3.00;;;;;;;;;;10343980;28;20092;-74
2022/08/23 11:16:55;;;;;;;4.95;3.53;;;;;;;;;;10361483;28;20103;-74
2022/08/23 11:22:12;;;;;;;4.10;2.85;;;;;;;;;;10361110;28;20073;-74
2022/08/23 11:27:25;;;;;;;4.63;2.47;;;;;;;;;;10362029;28;20092;-73
2022/08/23 11:32:36;;;;;;;3.63;2.60;;;;;;;;;;10362072;28;20048;-74
2022/08/23 11:37:54;;;;;;;3.20;2.30;;;;;;;;;;10360198;28;20183;-74
2022/08/23 11:43:03;;;;;;;2.55;2.35;;;;;;;;;;10362262;28;20141;-74
2022/08/23 11:48:14;;;;;;;3.10;2.88;;;;;;;;;;10357822;28;20034;-74
2022/08/23 11:53:22;;;;;;;2.92;2.72;;;;;;;;;;10360258;28;20113;-74
2022/08/23 11:58:30;;;;;;;2.85;2.58;;;;;;;;;;10361696;28;20077;-74
2022/08/23 12:03:36;;;;;;;4.97;2.67;;;;;;;;;;10361676;28;20112;-74
2022/08/23 12:08:50;;;;;;;3.05;2.60;;;;;;;;;;10362903;28;20045;-73
2022/08/23 12:13:55;;;;;;;4.75;2.42;;;;;;;;;;10365910;28;20034;-74
2022/08/23 12:19:01;;;;;;;4.53;2.50;;;;;;;;;;10359486;28;20041;-74
2022/08/23 12:24:13;;;;;;;3.45;2.42;;;;;;;;;;10364461;28;20044;-74
2022/08/23 12:29:21;;;;;;;3.35;2.08;;;;;;;;;;10360265;28;20129;-77
2022/08/23 12:34:29;;;;;;;4.00;2.27;;;;;;;;;;10359877;28;20525;-74
2022/08/23 12:39:33;;;;;;;5.35;2.28;;;;;;;;;;10357447;28;20062;-73
2022/08/23 12:44:36;;;;;;;3.05;2.20;;;;;;;;;;10359200;28;20037;-73
2022/08/23 12:49:40;;;;;;;3.13;2.10;;;;;;;;;;10355590;28;20069;-73
2022/08/23 12:54:43;;;;;;;3.03;2.10;;;;;;;;;;10359178;28;20038;-73
2022/08/23 12:59:49;;;;;;;2.30;2.10;;;;;;;;;;10355354;28;20140;-73
2022/08/23 13:04:53;;;;;;;3.67;2.28;;;;;;;;;;10363920;28;20077;-73
2022/08/23 13:09:56;;;;;;;5.90;2.03;;;;;;;;;;10363432;28;20087;-73
2022/08/23 13:15:01;;;;;;;3.33;2.17;;;;;;;;;;10366973;28;20056;-73
2022/08/23 13:20:17;;;;;;;2.85;2.17;;;;;;;;;;10366000;28;20117;-73
2022/08/23 13:25:25;;;;;;;2.72;2.10;;;;;;;;;;10361766;28;20045;-74
2022/08/23 13:30:34;;;;;;;4.40;2.30;;;;;;;;;;10368130;28;20041;-73
2022/08/23 13:35:41;;;;;;;3.30;2.40;;;;;;;;;;10363192;28;20511;-74
2022/08/23 13:40:46;;;;;;;4.15;2.17;;;;;;;;;;10363846;28;20045;-73
2022/08/23 13:45:50;;;;;;;6.63;3.70;;;;;;;;;;10365609;28;20042;-73
2022/08/23 13:50:54;;;;;;;2.42;1.88;;;;;;;;;;10356969;28;20043;-72
2022/08/23 13:55:58;;;;;;;2.95;2.10;;;;;;;;;;10335596;28;20125;-74
2022/08/23 14:01:02;;;;;;;5.13;2.05;;;;;;;;;;10359114;28;20053;-74
2022/08/23 14:06:06;;;;;;;2.17;1.80;;;;;;;;;;10363103;28;20763;-74
2022/08/23 14:11:10;;;;;;;4.20;1.92;;;;;;;;;;10363193;28;20121;-73
2022/08/23 14:16:14;;;;;;;3.17;2.15;;;;;;;;;;10366711;28;20080;-74
2022/08/23 14:21:39;;;;;;;3.47;2.08;;;;;;;;;;10360769;28;20038;-73
2022/08/23 14:26:42;;;;;;;5.10;2.22;;;;;;;;;;10358286;28;20120;-73
2022/08/23 14:31:53;;;;;;;;;;;;;;;;;;10365266;28;20117;-73
2022/08/23 14:36:58;;;;;;;3.30;1.60;;;;;;;;;;10364428;28;19968;-73
2022/08/23 14:42:22;;;;;;;4.47;2.60;;;;;;;;;;10362003;28;20045;-73
2022/08/23 14:47:26;;;;;;;2.42;2.00;;;;;;;;;;10363637;28;20042;-75
2022/08/23 14:52:30;;;;;;;2.55;1.67;;;;;;;;;;10358816;28;20050;-74
2022/08/23 14:57:33;;;;;;;2.15;1.70;;;;;;;;;;10357500;28;20038;-73
2022/08/23 15:02:35;;;;;;;3.03;1.55;;;;;;;;;;10363516;28;20755;-75
2022/08/23 15:07:40;;;;;;;4.50;2.53;;;;;;;;;;10360977;28;20140;-73
2022/08/23 15:12:43;;;;;;;3.58;1.60;;;;;;;;;;10364682;28;20080;-73
2022/08/23 15:18:08;;;;;;;2.70;1.80;;;;;;;;;;10361510;28;20054;-73
2022/08/23 15:23:12;;;;;;;2.78;1.67;;;;;;;;;;10371064;28;20066;-72
2022/08/23 15:28:15;;;;;;;1.67;1.50;;;;;;;;;;10363223;28;20144;-73
2022/08/23 15:33:19;;;;;;;2.20;1.50;;;;;;;;;;10365987;28;20155;-73
2022/08/23 15:38:31;;;;;;;3.80;2.13;;;;;;;;;;10350112;28;20442;-73
2022/08/23 15:43:35;;;;;;;3.90;2.20;;;;;;;;;;10364057;28;20042;-73
2022/08/23 15:48:41;;;;;;;2.53;1.85;;;;;;;;;;10360552;28;20148;-75
2022/08/23 15:53:46;;;;;;;5.07;2.47;;;;;;;;;;10365336;28;20223;-74
2022/08/23 15:58:59;;;;;;;2.67;1.80;;;;;;;;;;10359760;28;20066;-74
2022/08/23 16:04:03;;;;;;;1.90;1.60;;;;;;;;;;10362332;28;20042;-74
2022/08/23 16:09:20;;;;;;;5.05;1.80;;;;;;;;;;10356129;28;20128;-74
2022/08/23 16:14:29;;;;;;;5.25;2.63;;;;;;;;;;10355451;28;20049;-74
2022/08/23 16:19:32;;;;;;;3.08;2.10;;;;;;;;;;10357674;28;20123;-73
2022/08/23 16:24:42;;;;;;;2.60;1.70;;;;;;;;;;10352489;28;20034;-73
2022/08/23 16:29:46;;;;;;;3.45;2.05;;;;;;;;;;10354634;28;20100;-73
2022/08/23 16:34:58;;;;;;;2.78;2.20;;;;;;;;;;10353538;28;20556;-73
2022/08/23 16:40:03;;;;;;;4.03;2.15;;;;;;;;;;10350640;28;20069;-73
2022/08/23 16:45:08;;;;;;;3.15;2.15;;;;;;;;;;10353101;28;20522;-73
2022/08/23 16:50:13;;;;;;;3.72;2.20;;;;;;;;;;10355245;28;20045;-73
2022/08/23 16:55:17;;;;;;;5.07;2.95;;;;;;;;;;10351672;28;20128;-73
2022/08/23 17:00:20;;;;;;;4.90;2.20;;;;;;;;;;10353419;28;20643;-73
2022/08/23 17:05:23;;;;;;;3.80;2.67;;;;;;;;;;10350320;28;20061;-73
2022/08/23 17:10:28;;;;;;;7.07;3.85;;;;;;;;;;10330486;28;20550;-74
2022/08/23 17:15:33;;;;;;;4.95;2.08;;;;;;;;;;10330232;28;20053;-73
2022/08/23 17:20:37;;;;;;;6.75;2.35;;;;;;;;;;10336732;28;20058;-73
2022/08/23 17:25:46;;;;;;;10.25;5.22;;;;;;;;;;10339741;28;20108;-74
2022/08/23 17:30:50;;;;;;;6.35;3.05;;;;;;;;;;10324318;28;20057;-73
2022/08/23 17:35:53;;;;;;;;;;;;;;;;;;10337271;28;20065;-74
2022/08/23 17:40:57;;;;;;;4.78;2.53;;;;;;;;;;10351187;28;19926;-74
2022/08/23 17:46:00;;;;;;;5.72;2.80;;;;;;;;;;10343161;28;20129;-74
2022/08/23 17:51:03;;;;;;;;;;;;;;;;;;10348268;28;20054;-74
2022/08/23 17:56:08;;;;;;;6.45;2.85;;;;;;;;;;10352322;28;20019;-74
2022/08/23 18:01:14;;;;;;;7.00;4.60;;;;;;;;;;10353095;28;20128;-74
2022/08/23 18:06:17;;;;;;;6.10;3.20;;;;;;;;;;10352204;28;20062;-74
2022/08/23 18:11:21;;;;;;;7.35;3.25;;;;;;;;;;10352441;28;20222;-74
2022/08/23 18:16:27;;;;;;;28.98;15.82;;;;;;;;;;10354488;28;20042;-74
2022/08/23 18:21:37;;;;;;;9.27;4.43;;;;;;;;;;10356357;28;20041;-74
2022/08/23 18:32:04;;;;;;;15.87;7.23;;;;;;;;;;10349877;28;20038;-74
2022/08/23 18:37:08;;;;;;;10.63;4.93;;;;;;;;;;10333056;28;20100;-73
2022/08/23 18:42:13;;;;;;;7.70;3.38;;;;;;;;;;10353688;28;20130;-74
2022/08/23 18:47:16;;;;;;;16.02;6.35;;;;;;;;;;10349801;28;20048;-73
2022/08/23 18:52:19;;;;;;;12.88;7.47;;;;;;;;;;10350678;28;20081;-74
2022/08/23 18:57:24;;;;;;;7.80;3.88;;;;;;;;;;10347539;28;20519;-73
2022/08/23 19:02:27;;;;;;;11.85;5.65;;;;;;;;;;10348306;28;20502;-75
2022/08/23 19:07:31;;;;;;;7.78;4.10;;;;;;;;;;10348005;28;20481;-75
2022/08/23 19:12:35;;;;;;;13.20;4.28;;;;;;;;;;10350272;28;20038;-75
2022/08/23 19:17:38;;;;;;;9.63;4.03;;;;;;;;;;10348163;28;20041;-74
2022/08/23 19:22:52;;;;;;;10.07;5.30;;;;;;;;;;10353011;28;20056;-73
2022/08/23 19:28:06;;;;;;;18.15;9.32;;;;;;;;;;10349588;28;20176;-72
2022/08/23 19:33:12;;;;;;;10.73;5.63;;;;;;;;;;10343998;28;20037;-74
2022/08/23 19:38:26;;;;;;;13.25;6.10;;;;;;;;;;10348561;28;20053;-71
2022/08/23 19:43:42;;;;;;;8.43;4.57;;;;;;;;;;10345788;28;20078;-70
2022/08/23 19:48:47;;;;;;;9.45;4.18;;;;;;;;;;10345218;28;20129;-71
2022/08/23 19:54:03;;;;;;;10.02;4.68;;;;;;;;;;10341431;28;20130;-73
2022/08/23 19:59:21;;;;;;;8.02;4.20;;;;;;;;;;10360856;28;20054;-71
2022/08/23 20:04:36;;;;;;;13.70;5.25;;;;;;;;;;10350843;28;20136;-74
2022/08/23 20:09:39;;;;;;;;;;;;;;;;;;10358484;28;20154;-74
2022/08/23 20:14:44;;;;;;;12.57;5.90;;;;;;;;;;10349861;28;20024;-74
2022/08/23 20:19:47;;;;;;;12.80;6.60;;;;;;;;;;10349530;28;20046;-72
2022/08/23 20:24:50;;;;;;;10.48;5.68;;;;;;;;;;10348323;28;20120;-73
2022/08/23 20:29:57;;;;;;;20.95;10.25;;;;;;;;;;10352077;28;20523;-73
2022/08/23 20:35:00;;;;;;;12.35;6.32;;;;;;;;;;10349678;28;20050;-73
2022/08/23 20:40:04;;;;;;;14.93;7.40;;;;;;;;;;10346280;28;20033;-73
2022/08/23 20:45:12;;;;;;;19.55;8.77;;;;;;;;;;10349870;28;20038;-73
2022/08/23 20:50:14;;;;;;;12.25;5.80;;;;;;;;;;10346648;28;20085;-74
2022/08/23 20:55:17;;;;;;;12.15;7.13;;;;;;;;;;10340959;28;20046;-74
2022/08/23 21:06:07;;;;;;;8.60;4.60;;;;;;;;;;10347864;28;20085;-73
2022/08/23 21:11:10;;;;;;;8.65;4.60;;;;;;;;;;10343219;28;20035;-74
2022/08/23 21:16:14;;;;;;;8.15;4.35;;;;;;;;;;10357149;28;20109;-74
2022/08/23 21:21:19;;;;;;;7.10;4.25;;;;;;;;;;10352905;28;20046;-74
2022/08/23 21:26:23;;;;;;;7.72;3.70;;;;;;;;;;10365748;28;20041;-75
2022/08/23 21:31:27;;;;;;;6.95;3.50;;;;;;;;;;10360094;28;20140;-73
2022/08/23 21:36:32;;;;;;;7.10;3.67;;;;;;;;;;10364163;28;20061;-73
2022/08/23 21:41:37;;;;;;;7.53;3.83;;;;;;;;;;10360814;28;20121;-73
2022/08/23 21:46:40;;;;;;;16.95;8.80;;;;;;;;;;10347906;28;20130;-73
2022/08/23 21:51:45;;;;;;;5.22;3.20;;;;;;;;;;10358618;28;20049;-76
2022/08/23 21:56:49;;;;;;;6.15;3.58;;;;;;;;;;10364139;28;20589;-75
2022/08/23 22:01:52;;;;;;;11.27;4.13;;;;;;;;;;10359055;28;20060;-73
2022/08/23 22:06:56;;;;;;;8.03;4.40;;;;;;;;;;10354100;28;20046;-73
2022/08/23 22:12:02;;;;;;;9.15;5.05;;;;;;;;;;10357337;28;20314;-73
2022/08/23 22:17:05;;;;;;;9.50;5.20;;;;;;;;;;10351651;28;20038;-74
2022/08/23 22:22:10;;;;;;;12.70;6.00;;;;;;;;;;10368414;28;20171;-76
2022/08/23 22:27:13;;;;;;;8.65;4.10;;;;;;;;;;10367305;28;20125;-75
2022/08/23 22:32:15;;;;;;;9.37;4.50;;;;;;;;;;10364902;28;20049;-74
2022/08/23 22:37:20;;;;;;;7.78;4.13;;;;;;;;;;10366194;28;20030;-73
2022/08/23 22:42:24;;;;;;;8.73;4.50;;;;;;;;;;10366441;28;20220;-73
2022/08/23 22:47:26;;;;;;;;;;;;;;;;;;10365043;28;20479;-73
2022/08/23 22:52:31;;;;;;;8.68;4.60;;;;;;;;;;10362176;28;19960;-73
2022/08/23 22:57:34;;;;;;;9.57;4.80;;;;;;;;;;10364716;28;20125;-74
2022/08/23 23:02:39;;;;;;;9.05;4.60;;;;;;;;;;10361196;28;20400;-73
2022/08/23 23:13:04;;;;;;;7.65;4.03;;;;;;;;;;10363006;28;20069;-73
2022/08/23 23:18:07;;;;;;;6.15;4.18;;;;;;;;;;10363874;28;20073;-74
2022/08/23 23:23:13;;;;;;;9.45;4.50;;;;;;;;;;10365996;28;20046;-74
2022/08/23 23:28:16;;;;;;;7.35;4.38;;;;;;;;;;10342706;28;20915;-73
2022/08/23 23:33:19;;;;;;;8.35;4.15;;;;;;;;;;10361578;28;20073;-73
2022/08/23 23:38:24;;;;;;;9.30;4.45;;;;;;;;;;10357897;28;20042;-73
2022/08/23 23:43:26;;;;;;;6.78;4.07;;;;;;;;;;10359867;28;20078;-74
2022/08/23 23:48:29;;;;;;;6.47;4.20;;;;;;;;;;10359868;28;20049;-73
2022/08/23 23:53:34;;;;;;;12.37;4.60;;;;;;;;;;10357391;28;20073;-74
2022/08/23 23:58:37;;;;;;;7.38;4.07;;;;;;;;;;10363791;28;20336;-74
